Time;durP1;ratioP1;P1;durP2;ratioP2;P2;SDS_P1;SDS_P2;PMS_P1;PMS_P2;Temp;Humidity;BMP_temperature;BMP_pressure;BME280_temperature;BME280_humidity;BME280_pressure;Samples;Min_cycle;Max_cycle;Signal;HPM_P1;HPM_P2
2021/08/14 00:02:12;;;;;;;6.30;2.70;;;23.00;69.10;;;;;;4195725;28;20047;-61
2021/08/14 00:04:34;;;;;;;5.55;3.13;;;23.00;69.10;;;;;;4206382;28;20109;-61
2021/08/14 00:06:56;;;;;;;6.88;3.10;;;23.00;69.10;;;;;;4207713;28;20070;-62
2021/08/14 00:09:18;;;;;;;6.05;2.88;;;23.00;69.10;;;;;;4207242;28;20079;-61
2021/08/14 00:11:41;;;;;;;6.18;2.75;;;22.90;69.10;;;;;;4207708;28;20130;-62
2021/08/14 00:14:04;;;;;;;5.57;2.97;;;22.90;69.10;;;;;;4207798;28;20044;-62
2021/08/14 00:16:27;;;;;;;9.20;2.95;;;22.90;69.10;;;;;;4207722;28;20062;-62
2021/08/14 00:18:49;;;;;;;8.68;3.65;;;22.90;69.10;;;;;;4190798;28;20493;-62
2021/08/14 00:21:11;;;;;;;6.32;3.22;;;23.00;69.20;;;;;;4191182;28;20566;-62
2021/08/14 00:23:33;;;;;;;6.32;3.05;;;22.90;69.20;;;;;;4203985;28;20048;-61
2021/08/14 00:25:57;;;;;;;6.82;2.80;;;22.90;69.30;;;;;;4207498;28;20047;-62
2021/08/14 00:28:19;;;;;;;6.97;3.70;;;22.90;69.30;;;;;;4207369;28;20075;-62
2021/08/14 00:30:43;;;;;;;4.68;2.58;;;22.90;69.30;;;;;;4207679;28;20059;-62
2021/08/14 00:33:05;;;;;;;7.32;2.50;;;22.90;69.20;;;;;;4207557;28;20139;-62
2021/08/14 00:35:27;;;;;;;3.80;2.85;;;22.90;69.30;;;;;;4206114;28;20048;-61
2021/08/14 00:37:48;;;;;;;4.55;2.33;;;22.90;69.30;;;;;;4207201;28;20055;-62
2021/08/14 00:40:12;;;;;;;5.40;3.08;;;22.90;69.40;;;;;;4207305;28;20537;-62
2021/08/14 00:42:34;;;;;;;6.78;2.80;;;22.90;69.30;;;;;;4207568;28;20047;-62
2021/08/14 00:44:57;;;;;;;4.82;2.70;;;22.90;69.40;;;;;;4207638;28;20054;-62
2021/08/14 00:47:26;;;;;;;5.97;2.63;;;22.90;69.50;;;;;;4207499;28;20044;-61
2021/08/14 00:49:48;;;;;;;6.18;3.13;;;22.90;69.20;;;;;;4197355;28;20079;-62
2021/08/14 00:52:10;;;;;;;6.18;2.72;;;22.90;69.40;;;;;;4210413;28;20414;-62
2021/08/14 00:54:32;;;;;;;6.85;2.85;;;22.90;69.40;;;;;;4210372;28;20394;-62
2021/08/14 00:56:56;;;;;;;4.90;3.00;;;22.80;69.30;;;;;;4210587;28;20421;-63
2021/08/14 00:59:18;;;;;;;6.65;2.60;;;22.90;69.30;;;;;;4210641;28;20739;-62
2021/08/14 01:01:40;;;;;;;8.18;3.38;;;22.80;69.30;;;;;;4210032;28;20070;-63
2021/08/14 01:04:03;;;;;;;5.65;2.42;;;22.80;69.30;;;;;;4210086;28;20044;-62
2021/08/14 01:06:26;;;;;;;5.03;2.88;;;22.80;69.30;;;;;;4210392;28;20048;-63
2021/08/14 01:08:51;;;;;;;6.80;3.22;;;22.80;69.40;;;;;;4209518;28;20044;-63
2021/08/14 01:11:14;;;;;;;6.60;2.95;;;22.80;69.40;;;;;;4210252;28;20052;-62
2021/08/14 01:13:37;;;;;;;6.65;3.15;;;22.80;69.40;;;;;;4209975;28;20417;-63
2021/08/14 01:16:00;;;;;;;6.63;2.70;;;22.80;69.50;;;;;;4210357;28;20048;-62
2021/08/14 01:18:22;;;;;;;7.18;3.33;;;22.80;69.50;;;;;;4209629;28;20097;-62
2021/08/14 01:20:47;;;;;;;5.80;3.20;;;22.80;69.60;;;;;;4208477;28;20135;-61
2021/08/14 01:23:10;;;;;;;7.65;3.03;;;22.80;69.40;;;;;;4209996;28;20048;-62
2021/08/14 01:25:32;;;;;;;7.30;3.13;;;22.70;69.40;;;;;;4210008;28;20104;-62
2021/08/14 01:27:55;;;;;;;8.30;3.05;;;22.70;69.40;;;;;;4209894;28;20051;-62
2021/08/14 01:30:17;;;;;;;6.57;2.95;;;22.70;69.30;;;;;;4209792;28;20055;-62
2021/08/14 01:32:39;;;;;;;6.75;3.10;;;22.70;69.40;;;;;;4209872;28;20169;-62
2021/08/14 01:35:02;;;;;;;5.85;3.00;;;22.70;69.40;;;;;;4209466;28;20508;-62
2021/08/14 01:37:24;;;;;;;6.75;3.08;;;22.70;69.60;;;;;;4209864;28;20072;-62
2021/08/14 01:39:46;;;;;;;6.68;3.00;;;22.70;69.60;;;;;;4192988;28;20419;-62
2021/08/14 01:42:09;;;;;;;5.80;2.45;;;22.70;69.70;;;;;;4192943;28;20076;-62
2021/08/14 01:44:34;;;;;;;6.45;3.22;;;22.70;69.60;;;;;;4192919;28;20149;-61
2021/08/14 01:46:55;;;;;;;6.78;3.05;;;22.60;70.30;;;;;;4193148;28;20071;-62
2021/08/14 01:49:18;;;;;;;5.55;2.95;;;22.70;69.70;;;;;;4195566;28;20418;-61
2021/08/14 01:51:40;;;;;;;6.68;3.38;;;22.70;69.70;;;;;;4207012;28;20127;-62
2021/08/14 01:54:04;;;;;;;6.93;2.97;;;22.70;69.70;;;;;;4207307;28;20139;-62
2021/08/14 01:56:27;;;;;;;7.05;3.35;;;22.60;69.60;;;;;;4209726;28;20058;-62
2021/08/14 01:58:49;;;;;;;6.85;2.88;;;22.60;69.70;;;;;;4209563;28;20048;-63
2021/08/14 02:01:12;;;;;;;6.75;3.00;;;22.60;69.80;;;;;;4209101;28;20071;-63
2021/08/14 02:03:35;;;;;;;7.38;3.30;;;22.60;69.80;;;;;;4207851;28;20109;-62
2021/08/14 02:05:57;;;;;;;4.85;3.13;;;22.60;69.90;;;;;;4209458;28;20059;-62
2021/08/14 02:08:19;;;;;;;6.85;3.38;;;22.60;69.90;;;;;;4209061;28;20044;-61
2021/08/14 02:10:41;;;;;;;5.97;3.28;;;22.60;70.00;;;;;;4209619;28;20088;-62
2021/08/14 02:13:04;;;;;;;5.07;2.75;;;22.60;70.10;;;;;;4209353;28;20047;-62
2021/08/14 02:15:26;;;;;;;7.20;3.45;;;22.60;70.30;;;;;;4209305;28;20055;-62
2021/08/14 02:17:49;;;;;;;6.15;2.90;;;22.60;70.50;;;;;;4208924;28;20440;-63
2021/08/14 02:20:12;;;;;;;5.72;3.20;;;22.60;70.40;;;;;;4209197;28;20055;-62
2021/08/14 02:22:34;;;;;;;5.72;3.08;;;22.60;70.50;;;;;;4208542;28;20055;-63
2021/08/14 02:24:56;;;;;;;5.40;3.17;;;22.60;70.60;;;;;;4208968;28;20072;-63
2021/08/14 02:27:19;;;;;;;6.55;3.45;;;22.60;70.60;;;;;;4209112;28;20405;-62
2021/08/14 02:29:41;;;;;;;4.60;3.22;;;22.50;70.60;;;;;;4209220;28;20456;-63
2021/08/14 02:32:03;;;;;;;6.82;4.05;;;22.60;70.70;;;;;;4208761;28;20429;-62
2021/08/14 02:34:27;;;;;;;5.40;3.25;;;22.50;70.70;;;;;;4208709;28;20054;-62
2021/08/14 02:36:49;;;;;;;5.93;2.83;;;22.50;70.70;;;;;;4209061;28;20478;-63
2021/08/14 02:39:12;;;;;;;8.02;3.75;;;22.50;70.90;;;;;;4208713;28;20066;-61
2021/08/14 02:41:34;;;;;;;5.75;2.88;;;22.50;71.00;;;;;;4209019;28;20133;-62
2021/08/14 02:43:56;;;;;;;8.95;3.20;;;22.50;70.90;;;;;;4208505;28;20245;-62
2021/08/14 02:46:18;;;;;;;8.13;3.53;;;22.50;70.90;;;;;;4208629;28;20105;-63
2021/08/14 02:48:40;;;;;;;5.68;3.17;;;22.50;71.00;;;;;;4208367;28;20131;-63
2021/08/14 02:51:04;;;;;;;8.38;3.63;;;22.50;71.10;;;;;;4208576;28;20048;-62
2021/08/14 02:53:26;;;;;;;8.52;3.30;;;22.50;71.10;;;;;;4208370;28;20047;-62
2021/08/14 02:55:48;;;;;;;6.20;3.33;;;22.50;71.10;;;;;;4208981;28;20051;-63
2021/08/14 02:58:10;;;;;;;7.47;3.60;;;22.50;71.30;;;;;;4208327;28;20052;-62
2021/08/14 03:00:32;;;;;;;5.10;3.03;;;22.50;71.20;;;;;;4208538;28;20063;-61
2021/08/14 03:02:54;;;;;;;5.43;3.28;;;22.50;71.20;;;;;;4208445;28;20108;-61
2021/08/14 03:05:16;;;;;;;6.75;3.17;;;22.50;71.20;;;;;;4208597;28;20140;-62
2021/08/14 03:07:40;;;;;;;6.97;3.08;;;22.50;71.10;;;;;;4208223;28;20055;-61
2021/08/14 03:10:02;;;;;;;9.95;3.42;;;22.50;71.20;;;;;;4208455;28;20217;-62
2021/08/14 03:12:24;;;;;;;4.85;3.30;;;22.50;71.30;;;;;;4207843;28;20610;-62
2021/08/14 03:14:46;;;;;;;6.50;3.17;;;22.50;71.90;;;;;;4208376;28;20070;-62
2021/08/14 03:17:09;;;;;;;8.52;3.28;;;22.50;71.70;;;;;;4208065;28;20515;-62
2021/08/14 03:19:30;;;;;;;8.50;3.53;;;22.50;71.50;;;;;;4194467;28;20043;-62
2021/08/14 03:21:52;;;;;;;6.68;3.30;;;22.50;71.60;;;;;;4208355;28;20055;-63
2021/08/14 03:24:17;;;;;;;6.15;3.30;;;22.40;71.60;;;;;;4191508;28;20502;-62
2021/08/14 03:26:39;;;;;;;8.10;3.58;;;22.50;71.80;;;;;;4191712;28;20090;-62
2021/08/14 03:29:01;;;;;;;6.00;3.60;;;22.40;71.70;;;;;;4191481;28;20044;-62
2021/08/14 03:31:23;;;;;;;7.68;3.50;;;22.40;71.80;;;;;;4191304;28;20055;-62
2021/08/14 03:33:47;;;;;;;8.70;4.20;;;22.40;71.80;;;;;;4191555;28;20048;-62
2021/08/14 03:36:09;;;;;;;8.60;3.80;;;22.40;71.80;;;;;;4204449;28;20048;-62
2021/08/14 03:38:36;;;;;;;8.85;3.80;;;22.40;71.90;;;;;;4208042;28;20052;-62
2021/08/14 03:41:00;;;;;;;9.90;3.65;;;22.40;72.00;;;;;;4208027;28;20512;-62
2021/08/14 03:43:22;;;;;;;7.45;3.78;;;22.40;71.90;;;;;;4207995;28;20062;-63
2021/08/14 03:45:44;;;;;;;7.05;3.30;;;22.40;72.10;;;;;;4207120;28;20051;-63
2021/08/14 03:48:06;;;;;;;11.80;3.92;;;22.40;72.20;;;;;;4207864;28;20051;-62
2021/08/14 03:50:28;;;;;;;9.27;4.55;;;22.40;72.30;;;;;;4207846;28;20048;-63
2021/08/14 03:52:51;;;;;;;8.48;3.75;;;22.40;72.30;;;;;;4207757;28;20097;-62
2021/08/14 03:55:13;;;;;;;10.90;4.13;;;22.40;72.20;;;;;;4207620;28;20089;-63
2021/08/14 03:57:37;;;;;;;7.78;3.65;;;22.40;72.30;;;;;;4207732;28;20059;-62
2021/08/14 03:59:59;;;;;;;7.57;3.85;;;22.40;72.30;;;;;;4207753;28;20055;-63
2021/08/14 04:02:21;;;;;;;9.02;3.72;;;22.40;72.40;;;;;;4207697;28;20054;-63
2021/08/14 04:04:43;;;;;;;9.88;3.83;;;22.40;72.40;;;;;;4207718;28;20121;-62
2021/08/14 04:07:06;;;;;;;7.45;3.55;;;22.40;72.30;;;;;;4207300;28;20645;-62
2021/08/14 04:09:28;;;;;;;6.43;3.63;;;22.40;72.40;;;;;;4207666;28;20048;-62
2021/08/14 04:11:50;;;;;;;7.70;3.88;;;22.40;72.50;;;;;;4207790;28;20075;-62
2021/08/14 04:14:14;;;;;;;7.97;3.78;;;22.40;72.50;;;;;;4207512;28;20058;-62
2021/08/14 04:16:36;;;;;;;8.80;3.97;;;22.40;72.50;;;;;;4207580;28;20562;-62
2021/08/14 04:18:58;;;;;;;7.57;4.28;;;22.30;72.50;;;;;;4207392;28;20051;-63
2021/08/14 04:21:20;;;;;;;10.18;4.30;;;22.40;72.60;;;;;;4207713;28;20060;-62
2021/08/14 04:23:42;;;;;;;7.35;4.18;;;22.30;72.60;;;;;;4208515;28;20058;-62
2021/08/14 04:26:04;;;;;;;10.57;4.50;;;22.30;72.60;;;;;;4211158;28;20067;-62
2021/08/14 04:28:27;;;;;;;11.32;4.53;;;22.30;72.50;;;;;;4211147;28;20044;-62
2021/08/14 04:30:50;;;;;;;9.63;3.70;;;22.30;72.70;;;;;;4211112;28;20048;-62
2021/08/14 04:33:12;;;;;;;8.13;3.83;;;22.30;72.80;;;;;;4210866;28;20406;-62
2021/08/14 04:35:35;;;;;;;7.45;3.80;;;22.30;72.70;;;;;;4210768;28;20421;-63
2021/08/14 04:37:57;;;;;;;6.70;3.60;;;22.30;72.80;;;;;;4210471;28;20521;-61
2021/08/14 04:40:19;;;;;;;7.53;3.38;;;22.30;72.90;;;;;;4210698;28;20052;-62
2021/08/14 04:42:42;;;;;;;8.75;3.63;;;22.30;73.00;;;;;;4210433;28;20097;-62
2021/08/14 04:45:05;;;;;;;8.70;3.50;;;22.30;73.10;;;;;;4210875;28;20055;-62
2021/08/14 04:47:29;;;;;;;10.63;4.38;;;22.30;73.10;;;;;;4210777;28;21212;-61
2021/08/14 04:49:51;;;;;;;11.45;3.83;;;22.30;73.10;;;;;;4210802;28;20052;-61
2021/08/14 04:52:13;;;;;;;11.35;4.43;;;22.30;73.10;;;;;;4210518;28;20410;-61
2021/08/14 04:54:35;;;;;;;11.57;4.28;;;22.30;73.10;;;;;;4210462;28;20054;-61
2021/08/14 04:56:57;;;;;;;9.75;4.00;;;22.30;73.20;;;;;;4209934;28;20530;-62
2021/08/14 04:59:19;;;;;;;7.43;4.15;;;22.30;73.20;;;;;;4210503;28;20135;-61
2021/08/14 05:01:41;;;;;;;9.80;4.18;;;22.30;73.20;;;;;;4210284;28;20480;-61
2021/08/14 05:04:05;;;;;;;9.43;4.28;;;22.30;74.20;;;;;;4210455;28;20418;-61
2021/08/14 05:06:27;;;;;;;7.05;4.13;;;22.30;73.30;;;;;;4210441;28;20047;-61
2021/08/14 05:08:49;;;;;;;6.75;3.47;;;22.30;73.30;;;;;;4193550;28;20048;-62
2021/08/14 05:11:11;;;;;;;6.88;4.28;;;22.30;73.30;;;;;;4193378;28;20059;-61
2021/08/14 05:13:33;;;;;;;10.25;3.95;;;22.30;73.40;;;;;;4193656;28;20060;-62
2021/08/14 05:15:55;;;;;;;10.80;4.30;;;22.30;73.40;;;;;;4206935;28;20048;-62
2021/08/14 05:18:17;;;;;;;11.57;4.18;;;22.30;73.40;;;;;;4209938;28;20124;-62
2021/08/14 05:20:41;;;;;;;8.48;3.92;;;22.30;73.50;;;;;;4210374;28;20452;-62
2021/08/14 05:23:04;;;;;;;11.82;4.07;;;22.30;73.60;;;;;;4210200;28;20056;-61
2021/08/14 05:25:28;;;;;;;11.63;5.10;;;22.30;73.70;;;;;;4210689;28;20052;-61
2021/08/14 05:27:50;;;;;;;9.50;3.60;;;22.30;73.70;;;;;;4209837;28;20078;-61
2021/08/14 05:30:13;;;;;;;12.25;4.88;;;22.30;73.70;;;;;;4209035;28;20047;-62
2021/08/14 05:32:36;;;;;;;10.75;4.82;;;22.30;73.80;;;;;;4209974;28;20077;-61
2021/08/14 05:34:58;;;;;;;7.97;4.32;;;22.30;74.00;;;;;;4209175;28;20519;-61
2021/08/14 05:37:21;;;;;;;9.02;4.25;;;22.30;74.10;;;;;;4209637;28;20052;-62
2021/08/14 05:39:43;;;;;;;10.90;4.30;;;22.30;74.00;;;;;;4201078;28;20520;-62
2021/08/14 05:42:05;;;;;;;8.35;3.88;;;22.40;74.10;;;;;;4209814;28;20069;-60
2021/08/14 05:44:27;;;;;;;10.57;4.30;;;22.40;74.00;;;;;;4209462;28;20052;-62
2021/08/14 05:46:50;;;;;;;11.00;5.03;;;22.40;74.10;;;;;;4209290;28;20478;-61
2021/08/14 05:49:13;;;;;;;8.93;4.20;;;22.40;74.00;;;;;;4209724;28;20055;-61
2021/08/14 05:51:36;;;;;;;9.57;4.00;;;22.40;74.00;;;;;;4209090;28;20054;-62
2021/08/14 05:54:10;;;;;;;10.32;4.97;;;22.40;73.90;;;;;;4209269;28;20169;-62
2021/08/14 05:56:31;;;;;;;9.73;4.43;;;22.40;73.90;;;;;;4209349;28;20048;-61
2021/08/14 05:58:54;;;;;;;10.35;4.15;;;22.40;73.90;;;;;;4198467;28;20565;-62
2021/08/14 06:01:16;;;;;;;10.82;4.40;;;22.40;74.80;;;;;;4193022;28;20521;-62
2021/08/14 06:03:38;;;;;;;12.25;4.78;;;22.30;73.90;;;;;;4192844;28;20051;-62
2021/08/14 06:06:00;;;;;;;10.52;4.50;;;22.30;74.00;;;;;;4193084;28;20049;-62
2021/08/14 06:08:22;;;;;;;8.50;3.92;;;22.40;74.10;;;;;;4208688;28;20068;-62
2021/08/14 06:10:45;;;;;;;10.93;4.55;;;22.30;74.00;;;;;;4208488;28;20108;-61
2021/08/14 06:13:08;;;;;;;9.15;4.30;;;22.30;74.20;;;;;;4199841;28;20490;-62
2021/08/14 06:15:32;;;;;;;9.52;3.75;;;22.30;74.20;;;;;;4201949;28;20395;-62
2021/08/14 06:17:54;;;;;;;10.75;4.75;;;22.30;74.20;;;;;;4209026;28;20043;-62
2021/08/14 06:20:16;;;;;;;9.32;4.25;;;22.30;74.20;;;;;;4209181;28;20052;-62
2021/08/14 06:22:39;;;;;;;11.25;4.70;;;22.30;74.30;;;;;;4209374;28;20104;-62
2021/08/14 06:25:01;;;;;;;13.52;4.63;;;22.30;74.40;;;;;;4208862;28;20139;-62
2021/08/14 06:27:25;;;;;;;9.63;4.07;;;22.40;74.50;;;;;;4209041;28;20051;-63
2021/08/14 06:29:47;;;;;;;9.93;4.80;;;22.40;74.60;;;;;;4208694;28;20079;-62
2021/08/14 06:32:09;;;;;;;13.65;4.63;;;22.40;74.50;;;;;;4209030;28;20508;-63
2021/08/14 06:34:31;;;;;;;10.27;4.57;;;22.40;74.80;;;;;;4209117;28;20072;-63
2021/08/14 06:36:53;;;;;;;10.52;4.90;;;22.40;78.30;;;;;;4208778;28;20036;-62
2021/08/14 06:39:15;;;;;;;11.90;4.95;;;22.40;79.70;;;;;;4208189;28;20102;-63
2021/08/14 06:41:38;;;;;;;10.88;4.53;;;22.50;80.20;;;;;;4208676;28;20132;-63
2021/08/14 06:44:01;;;;;;;10.35;4.10;;;22.40;79.20;;;;;;4208537;28;20070;-63
2021/08/14 06:46:23;;;;;;;14.32;4.28;;;22.50;78.10;;;;;;4207085;28;20064;-62
2021/08/14 06:48:45;;;;;;;12.85;3.92;;;22.50;77.60;;;;;;4199684;28;20101;-63
2021/08/14 06:51:11;;;;;;;8.40;4.28;;;22.50;77.00;;;;;;4208619;28;20089;-63
2021/08/14 06:53:33;;;;;;;10.75;4.32;;;22.60;76.80;;;;;;4208739;28;20137;-63
2021/08/14 06:55:55;;;;;;;9.68;4.20;;;22.60;76.20;;;;;;4208667;28;20051;-63
2021/08/14 06:58:18;;;;;;;11.32;4.28;;;22.60;76.00;;;;;;4208563;28;20052;-63
2021/08/14 07:00:41;;;;;;;10.02;4.22;;;22.60;75.70;;;;;;4207864;28;20169;-63
2021/08/14 07:03:03;;;;;;;10.60;4.28;;;22.70;75.60;;;;;;4195483;28;20080;-63
2021/08/14 07:05:26;;;;;;;10.43;4.35;;;22.70;75.50;;;;;;4207667;28;20044;-62
2021/08/14 07:07:48;;;;;;;9.18;4.55;;;22.70;75.40;;;;;;4207991;28;20044;-62
2021/08/14 07:10:12;;;;;;;8.75;3.70;;;22.70;75.20;;;;;;4208184;28;20052;-62
2021/08/14 07:12:34;;;;;;;8.77;4.65;;;22.70;75.20;;;;;;4191552;28;20056;-63
2021/08/14 07:14:56;;;;;;;10.13;4.35;;;22.80;75.30;;;;;;4191542;28;20059;-62
2021/08/14 07:17:19;;;;;;;9.82;4.20;;;22.80;75.30;;;;;;4199653;28;20553;-62
2021/08/14 07:19:41;;;;;;;13.40;4.88;;;22.80;75.00;;;;;;4208211;28;20845;-62
2021/08/14 07:22:04;;;;;;;10.98;4.82;;;22.90;74.90;;;;;;4208292;28;20044;-62
2021/08/14 07:24:26;;;;;;;10.07;4.18;;;22.90;74.80;;;;;;4207935;28;20055;-61
2021/08/14 07:26:48;;;;;;;8.82;3.92;;;22.90;74.80;;;;;;4207989;28;20050;-61
2021/08/14 07:29:10;;;;;;;13.13;4.88;;;22.90;74.60;;;;;;4207849;28;20070;-62
2021/08/14 07:31:32;;;;;;;11.07;4.93;;;22.90;74.60;;;;;;4207822;28;20126;-63
2021/08/14 07:33:56;;;;;;;8.70;4.55;;;22.90;74.60;;;;;;4207869;28;20068;-61
2021/08/14 07:36:18;;;;;;;10.60;4.07;;;22.90;74.70;;;;;;4198464;28;20106;-62
2021/08/14 07:38:40;;;;;;;10.38;4.78;;;23.00;74.70;;;;;;4207169;28;20162;-65
2021/08/14 07:41:02;;;;;;;11.18;4.55;;;22.90;74.80;;;;;;4207362;28;20117;-66
2021/08/14 07:43:24;;;;;;;12.30;4.40;;;22.90;74.80;;;;;;4207202;28;20048;-65
2021/08/14 07:45:46;;;;;;;12.98;4.63;;;22.90;74.80;;;;;;4206740;28;20137;-66
2021/08/14 07:48:08;;;;;;;8.65;4.20;;;22.90;75.00;;;;;;4206898;28;20094;-66
2021/08/14 07:50:32;;;;;;;9.18;4.38;;;22.90;75.00;;;;;;4207924;28;20051;-65
2021/08/14 07:52:56;;;;;;;16.08;3.95;;;22.90;75.20;;;;;;4207705;28;20048;-65
2021/08/14 07:55:19;;;;;;;9.35;4.03;;;22.90;75.00;;;;;;4207391;28;20059;-66
2021/08/14 07:57:42;;;;;;;10.45;4.28;;;22.80;75.00;;;;;;4206959;28;20040;-65
2021/08/14 08:00:05;;;;;;;10.18;4.53;;;22.80;75.20;;;;;;4207476;28;20056;-65
2021/08/14 08:02:32;;;;;;;7.15;4.07;;;22.90;75.30;;;;;;4207611;28;20070;-65
2021/08/14 08:04:54;;;;;;;9.48;3.92;;;22.80;75.20;;;;;;4199880;28;20058;-65
2021/08/14 08:07:17;;;;;;;9.35;4.40;;;22.80;75.30;;;;;;4201336;28;20113;-66
2021/08/14 08:09:40;;;;;;;11.40;4.78;;;22.80;75.30;;;;;;4207296;28;20146;-63
2021/08/14 08:12:02;;;;;;;9.35;4.05;;;22.80;75.30;;;;;;4206852;28;20075;-65
2021/08/14 08:14:24;;;;;;;9.85;4.10;;;22.80;75.30;;;;;;4206844;28;20428;-64
2021/08/14 08:16:47;;;;;;;8.23;4.20;;;22.80;75.40;;;;;;4205197;28;20155;-64
2021/08/14 08:19:09;;;;;;;10.73;4.35;;;22.80;75.50;;;;;;4203038;28;20571;-64
2021/08/14 08:21:31;;;;;;;11.63;3.65;;;22.80;75.50;;;;;;4199727;28;20062;-64
2021/08/14 08:23:55;;;;;;;11.32;4.22;;;22.80;75.50;;;;;;4191002;28;20036;-63
2021/08/14 08:26:17;;;;;;;10.02;4.18;;;22.80;75.40;;;;;;4190636;28;20063;-64
2021/08/14 08:28:39;;;;;;;11.27;4.63;;;22.80;75.30;;;;;;4191992;28;20064;-63
2021/08/14 08:31:01;;;;;;;8.95;4.30;;;22.80;75.30;;;;;;4195154;28;20051;-64
2021/08/14 08:33:23;;;;;;;8.73;3.72;;;22.80;75.30;;;;;;4191611;28;20442;-63
2021/08/14 08:35:45;;;;;;;10.23;4.35;;;22.90;75.70;;;;;;4206823;28;20478;-63
2021/08/14 08:38:09;;;;;;;6.97;3.53;;;22.90;75.30;;;;;;4207050;28;20048;-64
2021/08/14 08:40:37;;;;;;;9.90;3.60;;;22.90;75.10;;;;;;4193080;28;20127;-65
2021/08/14 08:42:59;;;;;;;11.93;4.30;;;22.90;75.20;;;;;;4197827;28;20165;-65
2021/08/14 08:45:21;;;;;;;9.25;3.90;;;22.90;75.30;;;;;;4206644;28;20044;-64
2021/08/14 08:47:45;;;;;;;9.95;4.15;;;22.90;75.30;;;;;;4206594;28;20626;-64
2021/08/14 08:50:09;;;;;;;7.40;3.83;;;23.00;74.80;;;;;;4207246;28;20052;-64
2021/08/14 08:52:31;;;;;;;6.90;3.47;;;23.00;74.60;;;;;;4207692;28;20093;-64
2021/08/14 08:54:54;;;;;;;9.63;3.78;;;23.00;74.30;;;;;;4207586;28;20056;-63
2021/08/14 08:57:19;;;;;;;7.82;4.00;;;23.00;74.30;;;;;;4207556;28;20052;-64
2021/08/14 08:59:41;;;;;;;8.80;3.30;;;23.00;74.30;;;;;;4199180;28;20082;-64
2021/08/14 09:02:03;;;;;;;14.85;5.05;;;23.10;74.00;;;;;;4207043;28;20048;-63
2021/08/14 09:04:27;;;;;;;7.72;3.40;;;23.10;74.00;;;;;;4207409;28;20516;-64
2021/08/14 09:06:50;;;;;;;7.10;3.63;;;23.10;73.90;;;;;;4207190;28;20056;-64
2021/08/14 09:09:13;;;;;;;7.25;3.92;;;23.10;73.70;;;;;;4205769;28;20048;-64
2021/08/14 09:11:35;;;;;;;16.00;3.70;;;23.10;73.40;;;;;;4210065;28;20055;-64
2021/08/14 09:14:06;;;;;;;7.03;3.35;;;23.20;73.30;;;;;;4210402;28;20109;-64
2021/08/14 09:16:28;;;;;;;7.23;2.87;;;23.20;73.10;;;;;;4209820;28;20550;-64
2021/08/14 09:18:58;;;;;;;6.45;3.28;;;23.20;73.90;;;;;;4209835;28;20055;-64
2021/08/14 09:21:30;;;;;;;7.97;3.42;;;23.10;72.80;;;;;;4210018;28;20044;-64
2021/08/14 09:23:52;;;;;;;7.97;3.45;;;23.20;72.80;;;;;;4210443;28;20058;-63
2021/08/14 09:26:14;;;;;;;9.05;3.30;;;23.20;72.70;;;;;;4210260;28;20054;-64
2021/08/14 09:28:37;;;;;;;7.53;3.00;;;23.20;72.60;;;;;;4209694;28;20052;-64
2021/08/14 09:31:02;;;;;;;9.55;2.92;;;23.20;72.70;;;;;;4210263;28;20085;-64
2021/08/14 09:33:25;;;;;;;15.63;3.92;;;23.20;72.50;;;;;;4210262;28;20751;-64
2021/08/14 09:35:53;;;;;;;9.20;3.50;;;23.20;72.40;;;;;;4210116;28;20563;-64
2021/08/14 09:38:15;;;;;;;5.75;2.78;;;23.20;72.40;;;;;;4209555;28;20062;-64
2021/08/14 09:40:39;;;;;;;6.28;3.05;;;23.20;72.30;;;;;;4210179;28;20459;-64
2021/08/14 09:43:02;;;;;;;11.88;3.28;;;23.20;72.30;;;;;;4210106;28;20047;-64
2021/08/14 09:45:24;;;;;;;11.35;4.13;;;23.20;72.20;;;;;;4209443;28;20074;-64
2021/08/14 09:47:51;;;;;;;8.85;3.55;;;23.20;72.30;;;;;;4209470;28;20409;-64
2021/08/14 09:50:14;;;;;;;6.70;3.00;;;23.20;72.30;;;;;;4209765;28;20414;-64
2021/08/14 09:52:36;;;;;;;7.45;3.25;;;23.20;72.40;;;;;;4209785;28;20527;-64
2021/08/14 09:54:58;;;;;;;5.78;3.08;;;23.20;72.30;;;;;;4209712;28;20044;-64
2021/08/14 09:57:21;;;;;;;9.32;3.40;;;23.20;72.20;;;;;;4209742;28;20055;-64
2021/08/14 09:59:46;;;;;;;7.07;2.97;;;23.20;72.10;;;;;;4209521;28;20072;-64
2021/08/14 10:02:08;;;;;;;6.82;2.75;;;23.20;72.10;;;;;;4209390;28;20060;-64
2021/08/14 10:04:32;;;;;;;9.25;2.70;;;23.20;72.00;;;;;;4209707;28;20048;-64
2021/08/14 10:06:54;;;;;;;8.25;2.90;;;23.20;72.10;;;;;;4209496;28;20490;-64
2021/08/14 10:09:16;;;;;;;8.65;3.28;;;23.20;71.90;;;;;;4209271;28;20528;-64
2021/08/14 10:11:40;;;;;;;9.32;3.50;;;23.30;71.90;;;;;;4209251;28;20414;-64
2021/08/14 10:14:02;;;;;;;8.73;3.40;;;23.30;71.90;;;;;;4209172;28;20109;-64
2021/08/14 10:16:25;;;;;;;5.95;2.42;;;23.30;71.90;;;;;;4208923;28;20419;-63
2021/08/14 10:18:47;;;;;;;5.47;3.58;;;23.30;71.90;;;;;;4209103;28;20055;-64
2021/08/14 10:21:12;;;;;;;7.45;3.33;;;23.30;71.90;;;;;;4209245;28;20051;-64
2021/08/14 10:23:35;;;;;;;6.25;2.65;;;23.30;72.00;;;;;;4208676;28;20141;-63
2021/08/14 10:26:00;;;;;;;6.32;2.67;;;23.30;72.00;;;;;;4209283;28;20063;-64
2021/08/14 10:28:42;;;;;;;5.93;3.38;;;23.30;72.00;;;;;;4209239;28;20052;-63
2021/08/14 10:31:04;;;;;;;9.80;3.47;;;23.40;72.20;;;;;;4208817;28;20048;-64
2021/08/14 10:33:37;;;;;;;7.97;3.50;;;23.40;72.10;;;;;;4209308;28;20409;-63
2021/08/14 10:36:21;;;;;;;5.65;2.80;;;23.40;72.20;;;;;;4208353;28;20052;-64
2021/08/14 10:38:46;;;;;;;8.95;3.80;;;23.50;73.00;;;;;;4206844;28;20131;-64
2021/08/14 10:41:09;;;;;;;10.30;3.88;;;23.50;72.10;;;;;;4208278;28;20547;-64
2021/08/14 10:44:01;;;;;;;8.85;3.38;;;23.50;71.90;;;;;;4204908;28;20052;-66
2021/08/14 10:46:39;;;;;;;9.38;3.88;;;23.50;71.60;;;;;;4202482;28;20505;-65
2021/08/14 10:49:02;;;;;;;6.63;2.95;;;23.60;71.70;;;;;;4208554;28;20089;-65
2021/08/14 10:51:24;;;;;;;5.90;2.70;;;23.60;72.60;;;;;;4208788;28;20093;-67
2021/08/14 10:53:50;;;;;;;10.85;3.38;;;23.60;71.60;;;;;;4208562;28;20082;-65
2021/08/14 10:56:50;;;;;;;9.30;3.67;;;23.60;71.40;;;;;;4208961;28;20044;-67
2021/08/14 10:59:50;;;;;;;8.05;4.03;;;23.70;71.40;;;;;;4208069;28;20093;-65
2021/08/14 11:02:33;;;;;;;8.70;3.40;;;23.70;71.30;;;;;;4207520;28;20138;-65
2021/08/14 11:04:56;;;;;;;8.57;3.40;;;23.70;72.20;;;;;;4201992;28;20084;-66
2021/08/14 11:07:33;;;;;;;6.22;3.40;;;23.70;71.20;;;;;;4207064;28;20119;-65
2021/08/14 11:10:11;;;;;;;7.32;3.45;;;23.70;71.30;;;;;;4207403;28;20051;-65
2021/08/14 11:12:33;;;;;;;8.93;3.60;;;23.60;71.40;;;;;;4208045;28;20047;-64
2021/08/14 11:15:15;;;;;;;6.20;3.05;;;23.60;71.50;;;;;;4208379;28;20052;-64
2021/08/14 11:17:37;;;;;;;8.90;4.35;;;23.60;71.70;;;;;;4191478;28;20508;-65
2021/08/14 11:20:00;;;;;;;9.20;3.92;;;23.60;72.30;;;;;;4191676;28;20041;-64
2021/08/14 11:22:33;;;;;;;9.48;3.65;;;23.60;72.50;;;;;;4207674;28;20055;-65
2021/08/14 11:24:56;;;;;;;8.68;3.78;;;23.60;73.30;;;;;;4200646;28;20054;-65
2021/08/14 11:27:24;;;;;;;10.52;3.75;;;23.60;72.80;;;;;;4200577;28;20455;-65
2021/08/14 11:29:47;;;;;;;12.02;3.95;;;23.60;72.80;;;;;;4207459;28;20051;-65
2021/08/14 11:32:09;;;;;;;7.55;3.60;;;23.60;73.10;;;;;;4208351;28;20080;-65
2021/08/14 11:34:31;;;;;;;7.43;2.85;;;23.60;73.50;;;;;;4207556;28;20138;-65
2021/08/14 11:36:59;;;;;;;8.23;3.25;;;23.60;72.80;;;;;;4208335;28;20128;-65
2021/08/14 11:39:30;;;;;;;6.53;3.53;;;23.60;72.90;;;;;;4207350;28;20067;-65
2021/08/14 11:41:54;;;;;;;4.78;2.67;;;23.70;73.10;;;;;;4207560;28;20150;-65
2021/08/14 11:44:25;;;;;;;6.35;3.72;;;23.70;73.00;;;;;;4207723;28;20093;-65
2021/08/14 11:46:48;;;;;;;9.23;3.53;;;23.70;72.60;;;;;;4208135;28;20848;-64
2021/08/14 11:49:11;;;;;;;5.88;2.90;;;23.70;72.20;;;;;;4207787;28;20414;-65
2021/08/14 11:51:33;;;;;;;4.78;2.58;;;23.70;72.10;;;;;;4208219;28;20055;-66
2021/08/14 11:54:06;;;;;;;6.78;2.70;;;23.80;71.70;;;;;;4207849;28;20043;-65
2021/08/14 11:56:30;;;;;;;4.70;2.08;;;23.80;71.20;;;;;;4191043;28;20075;-65
2021/08/14 11:58:52;;;;;;;4.40;2.50;;;23.80;71.10;;;;;;4198615;28;20058;-65
2021/08/14 12:01:15;;;;;;;4.75;2.47;;;23.80;71.60;;;;;;4207761;28;20072;-64
2021/08/14 12:03:37;;;;;;;4.72;2.20;;;23.80;70.50;;;;;;4207566;28;20059;-65
2021/08/14 12:06:07;;;;;;;4.57;2.80;;;23.80;69.70;;;;;;4207611;28;20048;-65
2021/08/14 12:08:31;;;;;;;3.65;2.05;;;23.80;70.00;;;;;;4207021;28;20126;-65
2021/08/14 12:10:53;;;;;;;3.72;2.17;;;23.80;70.90;;;;;;4207751;28;20101;-64
2021/08/14 12:13:20;;;;;;;5.93;2.95;;;23.80;69.80;;;;;;4207773;28;20073;-65
2021/08/14 12:15:52;;;;;;;5.95;2.67;;;23.80;69.30;;;;;;4207620;28;20218;-65
2021/08/14 12:18:33;;;;;;;3.58;2.10;;;23.80;69.20;;;;;;4207531;28;20094;-64
2021/08/14 12:21:00;;;;;;;5.13;2.60;;;23.80;69.10;;;;;;4207516;28;20071;-65
2021/08/14 12:23:24;;;;;;;3.88;2.10;;;23.80;68.90;;;;;;4207482;28;20189;-65
2021/08/14 12:25:50;;;;;;;4.38;2.08;;;23.80;68.60;;;;;;4192899;28;20053;-65
2021/08/14 12:28:12;;;;;;;4.15;1.88;;;23.80;68.40;;;;;;4207168;28;20075;-65